createdAt,value
2018-06-17T00:01:23.568Z,24.80
2018-06-17T00:03:52.969Z,24.80
2018-06-17T00:06:23.269Z,24.80
2018-06-17T00:08:52.604Z,24.70
2018-06-17T00:11:22.022Z,24.70
2018-06-17T00:13:51.372Z,24.70
2018-06-17T00:16:20.738Z,24.70
2018-06-17T00:18:50.146Z,24.70
2018-06-17T00:21:19.446Z,24.70
2018-06-17T00:23:48.797Z,24.70
2018-06-17T00:26:18.158Z,24.70
2018-06-17T00:28:47.502Z,24.70
2018-06-17T00:31:16.929Z,24.70
2018-06-17T00:33:46.272Z,24.70
2018-06-17T00:36:15.626Z,24.60
2018-06-17T00:38:44.687Z,24.60
2018-06-17T00:41:14.109Z,24.60
2018-06-17T00:43:43.568Z,24.60
2018-06-17T00:46:12.942Z,24.60
2018-06-17T00:48:42.282Z,24.60
2018-06-17T00:51:11.689Z,24.60
2018-06-17T00:53:41.181Z,24.60
2018-06-17T00:56:10.554Z,24.60
2018-06-17T00:58:39.993Z,24.60
2018-06-17T01:01:09.400Z,24.60
2018-06-17T01:03:38.823Z,24.60
2018-06-17T01:06:08.229Z,24.60
2018-06-17T01:08:37.553Z,24.60
2018-06-17T01:11:06.948Z,24.50
2018-06-17T01:13:36.324Z,24.50
2018-06-17T01:16:05.736Z,24.50
2018-06-17T01:18:35.102Z,24.50
2018-06-17T01:21:04.481Z,24.50
2018-06-17T01:23:33.865Z,24.50
2018-06-17T01:26:08.836Z,24.50
2018-06-17T01:28:39.688Z,24.50
2018-06-17T01:31:09.910Z,24.40
2018-06-17T01:33:39.243Z,24.40
2018-06-17T01:36:09.572Z,24.40
2018-06-17T01:38:38.934Z,24.40
2018-06-17T01:41:08.320Z,24.40
2018-06-17T01:43:38.186Z,24.40
2018-06-17T01:46:07.510Z,24.40
2018-06-17T01:48:37.023Z,24.40
2018-06-17T01:51:06.457Z,24.40
2018-06-17T01:53:35.790Z,24.30
2018-06-17T01:56:05.257Z,24.30
2018-06-17T01:58:35.155Z,24.30
2018-06-17T02:01:04.330Z,24.30
2018-06-17T02:03:38.950Z,24.30
2018-06-17T02:06:13.498Z,24.30
2018-06-17T02:08:47.978Z,24.20
2018-06-17T02:11:22.644Z,24.20
2018-06-17T02:13:51.835Z,24.20
2018-06-17T02:16:21.137Z,24.20
2018-06-17T02:18:50.216Z,24.20
2018-06-17T02:21:19.573Z,24.20
2018-06-17T02:23:48.920Z,24.20
2018-06-17T02:26:18.269Z,24.20
2018-06-17T02:28:47.641Z,24.20
2018-06-17T02:31:16.958Z,24.20
2018-06-17T02:33:46.588Z,24.20
2018-06-17T02:36:15.927Z,24.20
2018-06-17T02:38:45.255Z,24.20
2018-06-17T02:41:14.671Z,24.20
2018-06-17T02:43:44.093Z,24.20
2018-06-17T02:46:18.753Z,24.20
2018-06-17T02:48:53.205Z,24.20
2018-06-17T02:51:27.615Z,24.20
2018-06-17T02:54:02.169Z,24.10
2018-06-17T02:56:31.529Z,24.10
2018-06-17T02:59:00.885Z,24.10
2018-06-17T03:01:30.222Z,24.10
2018-06-17T03:03:59.575Z,24.10
2018-06-17T03:06:28.949Z,24.10
2018-06-17T03:11:24.941Z,24.10
2018-06-17T03:13:54.371Z,24.10
2018-06-17T03:16:23.753Z,24.10
2018-06-17T03:18:53.157Z,24.10
2018-06-17T03:21:22.513Z,24.10
2018-06-17T03:23:51.885Z,24.10
2018-06-17T03:26:26.475Z,24.10
2018-06-17T03:29:01.158Z,24.00
2018-06-17T03:31:36.139Z,24.00
2018-06-17T03:34:05.570Z,24.00
2018-06-17T03:36:34.911Z,24.00
2018-06-17T03:39:06.084Z,23.90
2018-06-17T03:41:35.505Z,23.90
2018-06-17T03:44:04.922Z,23.90
2018-06-17T03:46:34.454Z,23.90
2018-06-17T03:49:04.088Z,23.90
2018-06-17T03:51:33.433Z,23.90
2018-06-17T03:54:02.805Z,23.90
2018-06-17T03:56:32.157Z,23.90
2018-06-17T03:59:01.476Z,23.90
2018-06-17T04:01:30.869Z,23.90
2018-06-17T04:04:00.276Z,23.90
2018-06-17T04:06:29.617Z,23.90
2018-06-17T04:08:59.200Z,23.90
2018-06-17T04:11:28.692Z,23.90
2018-06-17T04:13:57.996Z,23.90
2018-06-17T04:16:27.388Z,23.90
2018-06-17T04:18:56.732Z,23.90
2018-06-17T04:21:26.118Z,23.90
2018-06-17T04:23:55.413Z,23.90
2018-06-17T04:26:24.794Z,23.90
2018-06-17T04:28:54.154Z,23.90
2018-06-17T04:31:23.506Z,23.90
2018-06-17T04:33:52.885Z,23.90
2018-06-17T04:36:22.218Z,23.90
2018-06-17T04:38:51.670Z,23.90
2018-06-17T04:41:20.993Z,23.90
2018-06-17T04:43:50.354Z,23.90
2018-06-17T04:46:19.746Z,23.90
2018-06-17T04:48:49.079Z,23.90
2018-06-17T04:51:18.434Z,23.90
2018-06-17T04:53:47.783Z,24.00
2018-06-17T04:56:17.141Z,24.00
2018-06-17T04:58:46.458Z,24.00
2018-06-17T05:01:15.864Z,24.10
2018-06-17T05:03:45.194Z,24.10
2018-06-17T05:06:14.507Z,24.20
2018-06-17T05:08:43.848Z,24.30
2018-06-17T05:11:13.180Z,24.30
2018-06-17T05:13:42.527Z,24.40
2018-06-17T05:16:11.858Z,24.50
2018-06-17T05:18:41.197Z,24.50
2018-06-17T05:21:10.631Z,24.60
2018-06-17T05:23:39.954Z,24.70
2018-06-17T05:26:09.321Z,24.70
2018-06-17T05:28:38.669Z,24.80
2018-06-17T05:31:08.019Z,24.90
2018-06-17T05:33:37.361Z,25.00
2018-06-17T05:36:06.701Z,25.00
2018-06-17T05:38:36.080Z,25.10
2018-06-17T05:41:05.416Z,25.20
2018-06-17T05:43:34.758Z,25.20
2018-06-17T05:46:04.161Z,25.30
2018-06-17T05:48:33.476Z,25.40
2018-06-17T05:51:02.817Z,25.40
2018-06-17T05:53:32.127Z,25.50
2018-06-17T05:56:01.473Z,25.60
2018-06-17T05:58:30.856Z,25.70
2018-06-17T06:01:00.257Z,25.80
2018-06-17T06:03:29.639Z,25.90
2018-06-17T06:05:59.052Z,26.00
2018-06-17T06:08:28.403Z,26.10
2018-06-17T06:10:57.733Z,26.20
2018-06-17T06:13:27.071Z,26.30
2018-06-17T06:15:56.527Z,26.40
2018-06-17T06:18:25.930Z,26.50
2018-06-17T06:20:55.637Z,26.60
2018-06-17T06:23:24.744Z,26.70
2018-06-17T06:25:54.097Z,26.80
2018-06-17T06:28:23.449Z,27.00
2018-06-17T06:30:52.811Z,27.10
2018-06-17T06:33:22.196Z,27.30
2018-06-17T06:35:51.504Z,27.50
2018-06-17T06:38:20.869Z,27.70
2018-06-17T06:40:50.284Z,27.90
2018-06-17T06:43:19.688Z,28.10
2018-06-17T06:45:49.168Z,28.30
2018-06-17T06:48:18.548Z,28.50
2018-06-17T06:50:47.926Z,28.80
2018-06-17T06:53:17.325Z,29.20
2018-06-17T06:55:46.728Z,29.50
2018-06-17T06:58:16.085Z,29.90
2018-06-17T07:00:45.528Z,30.20
2018-06-17T07:03:31.760Z,30.60
2018-06-17T07:06:18.114Z,30.80
2018-06-17T07:09:05.419Z,31.10
2018-06-17T07:11:34.897Z,31.50
2018-06-17T07:14:05.100Z,31.80
2018-06-17T07:16:51.400Z,32.20
2018-06-17T07:19:21.056Z,32.50
2018-06-17T07:21:50.086Z,32.70
2018-06-17T07:24:19.680Z,33.00
2018-06-17T07:27:00.020Z,33.30
2018-06-17T07:29:43.831Z,33.60
2018-06-17T07:32:13.354Z,33.90
2018-06-17T07:34:42.784Z,34.20
2018-06-17T07:37:11.834Z,34.30
2018-06-17T07:40:47.679Z,34.40
2018-06-17T07:43:17.180Z,34.30
2018-06-17T07:45:46.578Z,34.30
2018-06-17T07:49:38.197Z,34.50
2018-06-17T07:52:25.708Z,34.40
2018-06-17T07:54:55.403Z,34.70
2018-06-17T07:57:26.177Z,35.00
2018-06-17T07:59:55.768Z,35.40
2018-06-17T08:02:25.258Z,35.70
2018-06-17T08:04:54.712Z,36.00
2018-06-17T08:07:24.073Z,36.30
2018-06-17T08:09:53.477Z,36.50
2018-06-17T08:12:22.980Z,36.70
2018-06-17T08:14:52.399Z,36.90
2018-06-17T08:17:21.887Z,37.20
2018-06-17T08:19:51.410Z,37.40
2018-06-17T08:22:20.846Z,37.50
2018-06-17T08:24:49.962Z,37.80
2018-06-17T08:27:19.444Z,37.90
2018-06-17T08:29:48.909Z,38.10
2018-06-17T08:32:18.972Z,38.20
2018-06-17T08:34:48.441Z,38.30
2018-06-17T08:37:17.984Z,38.30
2018-06-17T08:39:47.376Z,38.30
2018-06-17T08:42:16.839Z,38.40
2018-06-17T08:44:46.192Z,38.40
2018-06-17T08:47:16.525Z,38.50
2018-06-17T08:49:46.849Z,38.60
2018-06-17T08:52:16.257Z,38.70
2018-06-17T08:54:45.661Z,38.80
2018-06-17T08:57:15.436Z,38.80
2018-06-17T08:59:44.781Z,38.90
2018-06-17T09:02:14.205Z,38.90
2018-06-17T09:04:43.694Z,38.80
2018-06-17T09:07:13.436Z,38.80
2018-06-17T09:09:42.813Z,38.70
2018-06-17T09:12:12.325Z,38.60
2018-06-17T09:14:41.802Z,38.60
2018-06-17T09:17:11.217Z,38.60
2018-06-17T09:19:41.225Z,38.60
2018-06-17T09:22:10.658Z,38.60
2018-06-17T09:24:40.253Z,38.30
2018-06-17T09:27:09.741Z,38.10
2018-06-17T09:29:39.299Z,37.80
2018-06-17T09:32:08.878Z,37.50
2018-06-17T09:34:38.359Z,37.30
2018-06-17T09:37:07.759Z,37.00
2018-06-17T09:39:37.192Z,36.80
2018-06-17T09:42:06.859Z,36.60
2018-06-17T09:44:36.234Z,36.40
2018-06-17T09:47:05.707Z,36.20
2018-06-17T09:49:35.165Z,36.00
2018-06-17T09:52:04.698Z,35.80
2018-06-17T09:54:34.306Z,35.60
2018-06-17T09:57:03.461Z,35.40
2018-06-17T09:59:32.900Z,35.20
2018-06-17T10:02:02.302Z,35.00
2018-06-17T10:04:32.348Z,34.80
2018-06-17T10:07:02.245Z,34.60
2018-06-17T10:09:31.799Z,34.40
2018-06-17T10:12:01.666Z,34.20
2018-06-17T10:14:31.073Z,34.10
2018-06-17T10:17:01.538Z,34.00
2018-06-17T10:19:30.925Z,33.90
2018-06-17T10:22:00.532Z,33.80
2018-06-17T10:24:30.052Z,33.60
2018-06-17T10:27:00.426Z,33.50
2018-06-17T10:29:30.881Z,33.30
2018-06-17T10:32:00.390Z,33.20
2018-06-17T10:34:29.922Z,33.10
2018-06-17T10:36:59.254Z,33.00
2018-06-17T10:39:28.865Z,33.00
2018-06-17T10:41:58.383Z,32.90
2018-06-17T10:44:28.501Z,32.80
2018-06-17T10:46:58.033Z,32.70
2018-06-17T10:49:27.479Z,32.60
2018-06-17T10:51:56.974Z,32.60
2018-06-17T10:54:26.357Z,32.50
2018-06-17T10:56:55.734Z,32.50
2018-06-17T10:59:25.194Z,32.50
2018-06-17T11:01:54.567Z,32.40
2018-06-17T11:04:24.054Z,32.40
2018-06-17T11:06:53.426Z,32.30
2018-06-17T11:09:22.942Z,32.20
2018-06-17T11:11:52.480Z,32.10
2018-06-17T11:14:22.019Z,32.10
2018-06-17T11:16:51.460Z,32.00
2018-06-17T11:19:20.816Z,32.00
2018-06-17T11:21:50.790Z,32.00
2018-06-17T11:24:20.293Z,31.90
2018-06-17T11:26:49.758Z,31.90
2018-06-17T11:29:19.116Z,31.80
2018-06-17T11:31:48.585Z,31.80
2018-06-17T11:34:18.085Z,31.70
2018-06-17T11:36:47.627Z,31.60
2018-06-17T11:39:17.130Z,31.50
2018-06-17T11:41:47.638Z,31.50
2018-06-17T11:44:17.473Z,31.50
2018-06-17T11:46:46.886Z,31.40
2018-06-17T11:49:16.422Z,31.40
2018-06-17T11:51:45.796Z,31.50
2018-06-17T11:54:15.226Z,31.50
2018-06-17T11:56:44.620Z,31.40
2018-06-17T11:59:14.050Z,31.30
2018-06-17T12:01:43.425Z,31.30
2018-06-17T12:04:12.778Z,31.30
2018-06-17T12:06:42.148Z,31.20
2018-06-17T12:09:12.005Z,31.20
2018-06-17T12:11:41.444Z,31.20
2018-06-17T12:14:10.849Z,31.20
2018-06-17T12:16:40.249Z,31.20
2018-06-17T12:19:09.677Z,31.20
2018-06-17T12:21:39.060Z,31.20
2018-06-17T12:24:08.517Z,31.20
2018-06-17T12:26:38.065Z,31.30
2018-06-17T12:29:07.522Z,31.30
2018-06-17T12:31:37.073Z,31.20
2018-06-17T12:34:06.578Z,31.20
2018-06-17T12:36:35.995Z,31.20
2018-06-17T12:39:10.489Z,31.10
2018-06-17T12:41:40.195Z,31.10
2018-06-17T12:44:09.722Z,31.00
2018-06-17T12:46:39.215Z,31.00
2018-06-17T12:49:09.012Z,30.90
2018-06-17T12:51:38.569Z,30.90
2018-06-17T12:54:08.038Z,30.80
2018-06-17T12:56:37.657Z,30.80
2018-06-17T12:59:07.244Z,30.70
2018-06-17T13:01:37.226Z,30.70
2018-06-17T13:04:06.809Z,30.70
2018-06-17T13:06:36.233Z,30.60
2018-06-17T13:09:07.984Z,30.60
2018-06-17T13:11:37.457Z,30.50
2018-06-17T13:14:07.211Z,30.50
2018-06-17T13:16:36.776Z,30.40
2018-06-17T13:19:06.602Z,30.40
2018-06-17T13:21:36.093Z,30.30
2018-06-17T13:24:05.467Z,30.30
2018-06-17T13:26:35.053Z,30.20
2018-06-17T13:29:05.092Z,30.20
2018-06-17T13:31:34.954Z,30.20
2018-06-17T13:34:04.403Z,30.20
2018-06-17T13:36:33.607Z,30.20
2018-06-17T13:39:03.024Z,30.20
2018-06-17T13:41:32.474Z,30.20
2018-06-17T13:44:02.114Z,30.20
2018-06-17T13:46:32.064Z,30.20
2018-06-17T13:49:01.602Z,30.10
2018-06-17T13:51:31.373Z,30.10
2018-06-17T13:54:01.143Z,30.10
2018-06-17T13:56:30.585Z,30.10
2018-06-17T13:59:00.072Z,30.10
2018-06-17T14:01:29.554Z,30.10
2018-06-17T14:03:59.007Z,30.10
2018-06-17T14:06:28.506Z,30.10
2018-06-17T14:08:57.925Z,30.10
2018-06-17T14:11:27.006Z,30.00
2018-06-17T14:13:56.574Z,30.00
2018-06-17T14:16:26.101Z,30.00
2018-06-17T14:18:55.609Z,30.00
2018-06-17T14:21:25.267Z,29.90
2018-06-17T14:23:54.791Z,29.90
2018-06-17T14:26:24.255Z,29.90
2018-06-17T14:28:54.540Z,29.90
2018-06-17T14:31:24.165Z,29.90
2018-06-17T14:33:54.748Z,29.90
2018-06-17T14:36:24.988Z,29.80
2018-06-17T14:38:54.459Z,29.80
2018-06-17T14:41:23.803Z,29.80
2018-06-17T14:43:58.228Z,29.80
2018-06-17T14:46:32.928Z,29.80
2018-06-17T14:49:07.742Z,29.80
2018-06-17T14:51:42.461Z,29.70
2018-06-17T14:54:11.848Z,29.70
2018-06-17T14:56:41.248Z,29.60
2018-06-17T14:59:11.615Z,29.60
2018-06-17T15:01:40.983Z,29.60
2018-06-17T15:04:10.329Z,29.50
2018-06-17T15:06:39.723Z,29.40
2018-06-17T15:09:10.267Z,29.40
2018-06-17T15:11:39.730Z,29.30
2018-06-17T15:14:09.185Z,29.20
2018-06-17T15:16:38.579Z,29.10
2018-06-17T15:19:08.053Z,29.00
2018-06-17T15:21:37.513Z,28.80
2018-06-17T15:24:06.860Z,28.70
2018-06-17T15:26:36.201Z,28.60
2018-06-17T15:29:05.601Z,28.40
2018-06-17T15:31:40.336Z,28.30
2018-06-17T15:34:15.006Z,28.20
2018-06-17T15:36:49.746Z,28.10
2018-06-17T15:39:24.268Z,28.00
2018-06-17T15:41:53.673Z,27.90
2018-06-17T15:44:23.269Z,27.70
2018-06-17T15:46:52.709Z,27.60
2018-06-17T15:49:22.695Z,27.50
2018-06-17T15:51:51.723Z,27.40
2018-06-17T15:54:21.283Z,27.40
2018-06-17T15:56:50.660Z,27.30
2018-06-17T15:59:20.048Z,27.20
2018-06-17T16:01:49.583Z,27.20
2018-06-17T16:04:19.012Z,27.20
2018-06-17T16:06:48.552Z,27.10
2018-06-17T16:09:18.587Z,27.10
2018-06-17T16:11:53.309Z,27.00
2018-06-17T16:14:27.715Z,27.00
2018-06-17T16:17:02.471Z,26.90
2018-06-17T16:19:37.199Z,26.90
2018-06-17T16:22:06.646Z,26.90
2018-06-17T16:24:36.077Z,26.80
2018-06-17T16:27:05.472Z,26.80
2018-06-17T16:29:34.975Z,26.80
2018-06-17T16:32:04.406Z,26.80
2018-06-17T16:34:33.800Z,26.80
2018-06-17T16:37:03.116Z,26.80
2018-06-17T16:39:32.480Z,26.70
2018-06-17T16:42:01.837Z,26.70
2018-06-17T16:44:31.217Z,26.70
2018-06-17T16:47:00.595Z,26.70
2018-06-17T16:49:30.921Z,26.60
2018-06-17T16:52:05.583Z,26.60
2018-06-17T16:54:40.216Z,26.60
2018-06-17T16:58:15.642Z,26.50
2018-06-17T17:00:44.998Z,26.30
2018-06-17T17:03:14.359Z,26.30
2018-06-17T17:05:43.741Z,26.30
2018-06-17T17:08:13.197Z,26.30
2018-06-17T17:10:42.554Z,26.40
2018-06-17T17:13:11.988Z,26.40
2018-06-17T17:15:41.431Z,26.40
2018-06-17T17:18:10.793Z,26.30
2018-06-17T17:20:40.152Z,26.30
2018-06-17T17:23:09.580Z,26.30
2018-06-17T17:25:38.989Z,26.30
2018-06-17T17:28:08.391Z,26.30
2018-06-17T17:30:37.848Z,26.40
2018-06-17T17:33:12.473Z,26.40
2018-06-17T17:35:46.976Z,26.30
2018-06-17T17:38:21.518Z,26.30
2018-06-17T17:40:53.973Z,26.30
2018-06-17T17:43:23.342Z,26.30
2018-06-17T17:45:57.877Z,26.30
2018-06-17T17:48:27.219Z,26.30
2018-06-17T17:50:56.622Z,26.30
2018-06-17T17:53:25.673Z,26.30
2018-06-17T17:55:55.026Z,26.30
2018-06-17T17:58:24.416Z,26.30
2018-06-17T18:00:53.933Z,26.30
2018-06-17T18:03:23.379Z,26.30
2018-06-17T18:05:52.768Z,26.30
2018-06-17T18:08:22.110Z,26.30
2018-06-17T18:10:51.648Z,26.30
2018-06-17T18:13:21.063Z,26.30
2018-06-17T18:15:50.432Z,26.30
2018-06-17T18:18:19.870Z,26.30
2018-06-17T18:20:49.224Z,26.20
2018-06-17T18:23:19.277Z,26.30
2018-06-17T18:25:53.815Z,26.20
2018-06-17T18:28:28.360Z,26.20
2018-06-17T18:31:04.315Z,26.20
2018-06-17T18:33:38.936Z,26.20
2018-06-17T18:36:11.698Z,26.10
2018-06-17T18:38:42.361Z,26.10
2018-06-17T18:41:12.661Z,26.10
2018-06-17T18:43:42.207Z,26.10
2018-06-17T18:46:12.823Z,26.10
2018-06-17T18:48:42.260Z,26.10
2018-06-17T18:51:11.617Z,26.00
2018-06-17T18:53:40.945Z,26.00
2018-06-17T18:56:10.316Z,26.00
2018-06-17T18:58:39.641Z,26.00
2018-06-17T19:01:09.112Z,25.90
2018-06-17T19:03:38.516Z,25.90
2018-06-17T19:06:08.013Z,25.90
2018-06-17T19:08:42.644Z,25.90
2018-06-17T19:11:17.209Z,25.90
2018-06-17T19:13:51.672Z,25.80
2018-06-17T19:16:26.385Z,25.80
2018-06-17T19:18:55.796Z,25.70
2018-06-17T19:21:25.164Z,25.80
2018-06-17T19:23:54.531Z,25.70
2018-06-17T19:26:23.935Z,25.70
2018-06-17T19:28:53.426Z,25.70
2018-06-17T19:31:22.821Z,25.70
2018-06-17T19:33:52.201Z,25.70
2018-06-17T19:36:21.561Z,25.70
2018-06-17T19:38:50.931Z,25.70
2018-06-17T19:41:20.347Z,25.60
2018-06-17T19:43:49.707Z,25.60
2018-06-17T19:46:19.128Z,25.60
2018-06-17T19:48:48.443Z,25.60
2018-06-17T19:51:23.009Z,25.60
2018-06-17T19:53:57.514Z,25.50
2018-06-17T19:56:32.021Z,25.50
2018-06-17T19:59:06.666Z,25.50
2018-06-17T20:01:36.116Z,25.50
2018-06-17T20:04:05.499Z,25.40
2018-06-17T20:06:34.863Z,25.40
2018-06-17T20:09:06.329Z,25.40
2018-06-17T20:11:35.747Z,25.40
2018-06-17T20:14:05.423Z,25.40
2018-06-17T20:16:34.751Z,25.40
2018-06-17T20:19:04.127Z,25.40
2018-06-17T20:21:33.473Z,25.40
2018-06-17T20:24:02.822Z,25.40
2018-06-17T20:26:32.148Z,25.40
2018-06-17T20:29:01.507Z,25.30
2018-06-17T20:31:30.851Z,25.30
2018-06-17T20:34:05.454Z,25.30
2018-06-17T20:36:39.965Z,25.30
2018-06-17T20:39:14.968Z,25.30
2018-06-17T20:41:49.572Z,25.20
2018-06-17T20:44:18.911Z,25.20
2018-06-17T20:46:48.271Z,25.20
2018-06-17T20:49:17.679Z,25.20
2018-06-17T20:51:47.021Z,25.20
2018-06-17T20:54:16.388Z,25.20
2018-06-17T20:56:45.735Z,25.20
2018-06-17T20:59:15.092Z,25.10
2018-06-17T21:01:44.521Z,25.10
2018-06-17T21:04:13.870Z,25.10
2018-06-17T21:06:43.216Z,25.10
2018-06-17T21:09:12.838Z,25.00
2018-06-17T21:11:42.203Z,25.00
2018-06-17T21:14:11.550Z,25.00
2018-06-17T21:16:40.967Z,25.00
2018-06-17T21:19:15.480Z,25.00
2018-06-17T21:21:50.033Z,24.90
2018-06-17T21:24:24.463Z,24.90
2018-06-17T21:26:58.890Z,24.80
2018-06-17T21:29:28.269Z,24.80
2018-06-17T21:31:57.737Z,24.80
2018-06-17T21:34:27.170Z,24.80
2018-06-17T21:36:56.576Z,24.70
2018-06-17T21:39:25.916Z,24.70
2018-06-17T21:41:55.247Z,24.70
2018-06-17T21:44:24.688Z,24.70
2018-06-17T21:46:53.977Z,24.70
2018-06-17T21:49:24.116Z,24.70
2018-06-17T21:51:53.640Z,24.60
2018-06-17T21:54:23.009Z,24.60
2018-06-17T21:56:52.447Z,24.60
2018-06-17T21:59:21.824Z,24.60
2018-06-17T22:01:51.313Z,24.60
2018-06-17T22:04:25.881Z,24.60
2018-06-17T22:06:55.293Z,24.50
2018-06-17T22:09:29.864Z,24.50
2018-06-17T22:12:04.693Z,24.50
2018-06-17T22:14:39.364Z,24.50
2018-06-17T22:17:14.534Z,24.40
2018-06-17T22:19:44.009Z,24.40
2018-06-17T22:22:13.484Z,24.40
2018-06-17T22:24:43.377Z,24.40
2018-06-17T22:27:13.422Z,24.40
2018-06-17T22:29:43.323Z,24.30
2018-06-17T22:32:12.682Z,24.30
2018-06-17T22:34:42.931Z,24.30
2018-06-17T22:37:12.078Z,24.30
2018-06-17T22:39:41.470Z,24.30
2018-06-17T22:42:10.944Z,24.20
2018-06-17T22:44:40.305Z,24.20
2018-06-17T22:47:09.683Z,24.20
2018-06-17T22:49:39.009Z,24.10
2018-06-17T22:52:08.353Z,24.10
2018-06-17T22:54:50.463Z,24.10
2018-06-17T22:57:25.065Z,24.00
2018-06-17T22:59:59.585Z,23.90
2018-06-17T23:02:34.266Z,23.90
2018-06-17T23:05:09.005Z,23.90
2018-06-17T23:07:43.584Z,23.80
2018-06-17T23:10:13.060Z,23.80
2018-06-17T23:12:42.410Z,23.80
2018-06-17T23:15:11.726Z,23.70
2018-06-17T23:17:41.088Z,23.70
2018-06-17T23:20:10.521Z,23.70
2018-06-17T23:22:39.892Z,23.70
2018-06-17T23:25:09.233Z,23.60
2018-06-17T23:27:38.564Z,23.60
2018-06-17T23:30:07.934Z,23.60
2018-06-17T23:32:37.261Z,23.50
2018-06-17T23:35:06.625Z,23.50
2018-06-17T23:37:36.042Z,23.50
2018-06-17T23:40:05.409Z,23.50
2018-06-17T23:42:34.738Z,23.40
2018-06-17T23:45:04.116Z,23.40
2018-06-17T23:47:38.807Z,23.30
2018-06-17T23:50:13.435Z,23.30
2018-06-17T23:52:47.982Z,23.30
2018-06-17T23:55:22.392Z,23.20
2018-06-17T23:57:51.767Z,23.20
